createdAt,value
2022-12-12T00:00:39.882Z,97539.53
2022-12-12T00:03:22.795Z,97535.84
2022-12-12T00:05:49.936Z,97533.28
2022-12-12T00:08:16.712Z,97543.91
2022-12-12T00:10:43.781Z,97534.88
2022-12-12T00:13:10.484Z,97536.69
2022-12-12T00:15:37.559Z,97533.19
2022-12-12T00:18:04.321Z,97531.47
2022-12-12T00:20:31.380Z,97536.88
2022-12-12T00:22:58.129Z,97534.03
2022-12-12T00:25:25.188Z,97536.69
2022-12-12T00:27:51.881Z,97534.13
2022-12-12T00:30:18.941Z,97542.28
2022-12-12T00:32:45.661Z,97543.03
2022-12-12T00:35:13.124Z,97546.69
2022-12-12T00:37:40.089Z,97546.47
2022-12-12T00:40:07.621Z,97544.97
2022-12-12T00:42:34.366Z,97537.63
2022-12-12T00:45:01.488Z,97538.59
2022-12-12T00:47:28.273Z,97532.41
2022-12-12T00:49:55.373Z,97545.50
2022-12-12T00:52:22.116Z,97543.81
2022-12-12T00:54:49.178Z,97545.50
2022-12-12T00:57:15.980Z,97543.28
2022-12-12T00:59:43.013Z,97545.94
2022-12-12T01:02:09.778Z,97545.06
2022-12-12T01:04:36.872Z,97551.13
2022-12-12T01:07:03.624Z,97550.00
2022-12-12T01:09:30.628Z,97544.84
2022-12-12T01:11:57.343Z,97549.34
2022-12-12T01:14:24.387Z,97543.81
2022-12-12T01:16:51.215Z,97545.72
2022-12-12T01:19:18.252Z,97542.19
2022-12-12T01:21:44.993Z,97546.69
2022-12-12T01:24:12.024Z,97542.19
2022-12-12T01:26:38.727Z,97548.38
2022-12-12T01:29:05.803Z,97540.59
2022-12-12T01:31:32.689Z,97540.59
2022-12-12T01:33:59.707Z,97540.69
2022-12-12T01:36:26.449Z,97534.31
2022-12-12T01:38:54.683Z,97540.38
2022-12-12T01:41:21.801Z,97526.25
2022-12-12T01:43:48.943Z,97525.59
2022-12-12T01:46:35.973Z,97526.34
2022-12-12T01:49:13.820Z,97530.72
2022-12-12T01:51:40.728Z,97532.41
2022-12-12T01:54:11.646Z,97524.44
2022-12-12T01:56:38.619Z,97529.00
2022-12-12T01:59:06.191Z,97519.19
2022-12-12T02:01:32.982Z,97517.41
2022-12-12T02:04:00.639Z,97508.56
2022-12-12T02:06:28.205Z,97516.66
2022-12-12T02:08:57.120Z,97515.69
2022-12-12T02:11:23.943Z,97514.94
2022-12-12T02:13:50.943Z,97514.94
2022-12-12T02:16:17.732Z,97520.06
2022-12-12T02:19:25.872Z,97509.72
2022-12-12T02:22:18.932Z,97515.97
2022-12-12T02:25:27.642Z,97515.88
2022-12-12T02:27:57.218Z,97511.22
2022-12-12T02:30:56.723Z,97514.28
2022-12-12T02:33:47.985Z,97518.53
2022-12-12T02:36:36.349Z,97516.84
2022-12-12T02:39:21.064Z,97517.69
2022-12-12T02:41:51.858Z,97510.00
2022-12-12T02:44:30.218Z,97517.44
2022-12-12T02:47:21.516Z,97516.69
2022-12-12T02:49:49.684Z,97523.50
2022-12-12T02:52:17.366Z,97518.09
2022-12-12T02:54:44.253Z,97510.09
2022-12-12T02:57:16.559Z,97514.78
2022-12-12T03:00:10.970Z,97518.50
2022-12-12T03:03:18.556Z,97514.13
2022-12-12T03:06:08.393Z,97516.97
2022-12-12T03:09:04.749Z,97520.47
2022-12-12T03:11:54.373Z,97515.16
2022-12-12T03:14:25.086Z,97512.31
2022-12-12T03:17:10.410Z,97513.19
2022-12-12T03:19:40.373Z,97514.22
2022-12-12T03:22:27.326Z,97517.94
2022-12-12T03:25:05.105Z,97512.50
2022-12-12T03:27:35.811Z,97519.63
2022-12-12T03:30:07.265Z,97519.53
2022-12-12T03:32:38.326Z,97519.63
2022-12-12T03:35:33.550Z,97515.47
2022-12-12T03:38:06.721Z,97513.47
2022-12-12T03:40:39.385Z,97513.19
2022-12-12T03:43:11.996Z,97523.13
2022-12-12T03:45:45.202Z,97513.56
2022-12-12T03:48:32.973Z,97516.22
2022-12-12T03:51:08.304Z,97514.41
2022-12-12T03:53:49.416Z,97515.28
2022-12-12T03:56:21.257Z,97519.72
2022-12-12T03:58:50.925Z,97524.22
2022-12-12T04:01:18.979Z,97508.25
2022-12-12T04:04:15.606Z,97511.84
2022-12-12T04:06:46.103Z,97507.31
2022-12-12T04:09:33.016Z,97514.31
2022-12-12T04:12:27.939Z,97516.78
2022-12-12T04:15:13.217Z,97506.25
2022-12-12T04:17:41.381Z,97513.47
2022-12-12T04:20:53.660Z,97508.06
2022-12-12T04:23:35.247Z,97504.75
2022-12-12T04:26:32.432Z,97508.16
2022-12-12T04:29:26.779Z,97508.25
2022-12-12T04:32:08.597Z,97505.31
2022-12-12T04:34:44.424Z,97506.25
2022-12-12T04:37:13.416Z,97507.19
2022-12-12T04:39:40.528Z,97511.66
2022-12-12T04:42:07.684Z,97511.47
2022-12-12T04:44:35.404Z,97512.41
2022-12-12T04:47:02.410Z,97508.81
2022-12-12T04:49:30.308Z,97505.31
2022-12-12T04:52:00.775Z,97501.88
2022-12-12T04:54:47.651Z,97505.41
2022-12-12T04:57:20.727Z,97509.75
2022-12-12T04:59:47.963Z,97509.56
2022-12-12T05:02:17.788Z,97512.31
2022-12-12T05:05:01.564Z,97511.38
2022-12-12T05:07:39.842Z,97504.13
2022-12-12T05:10:10.836Z,97506.78
2022-12-12T05:12:48.576Z,97507.63
2022-12-12T05:15:16.608Z,97513.94
2022-12-12T05:17:48.840Z,97517.16
2022-12-12T05:20:15.982Z,97507.63
2022-12-12T05:22:42.722Z,97502.22
2022-12-12T05:25:10.176Z,97497.88
2022-12-12T05:27:37.202Z,97497.69
2022-12-12T05:30:04.809Z,97501.38
2022-12-12T05:32:31.549Z,97504.03
2022-12-12T05:34:58.550Z,97505.56
2022-12-12T05:37:25.394Z,97505.25
2022-12-12T05:39:52.958Z,97510.47
2022-12-12T05:42:19.650Z,97507.81
2022-12-12T05:44:47.076Z,97510.00
2022-12-12T05:47:13.915Z,97516.81
2022-12-12T05:49:40.905Z,97518.53
2022-12-12T05:52:07.631Z,97515.41
2022-12-12T05:54:34.657Z,97518.81
2022-12-12T05:57:01.361Z,97514.47
2022-12-12T05:59:28.394Z,97510.09
2022-12-12T06:01:55.130Z,97516.25
2022-12-12T06:04:22.368Z,97518.06
2022-12-12T06:06:49.215Z,97519.56
2022-12-12T06:09:16.218Z,97526.69
2022-12-12T06:11:42.958Z,97520.81
2022-12-12T06:14:09.955Z,97520.53
2022-12-12T06:16:36.843Z,97524.13
2022-12-12T06:19:03.962Z,97527.75
2022-12-12T06:21:30.732Z,97527.53
2022-12-12T06:23:57.782Z,97527.53
2022-12-12T06:26:24.505Z,97524.13
2022-12-12T06:28:51.541Z,97536.59
2022-12-12T06:31:18.481Z,97537.34
2022-12-12T06:33:45.700Z,97539.91
2022-12-12T06:36:14.730Z,97537.25
2022-12-12T06:38:41.778Z,97538.09
2022-12-12T06:41:17.721Z,97545.31
2022-12-12T06:43:44.913Z,97549.91
2022-12-12T06:46:17.117Z,97550.09
2022-12-12T06:48:44.496Z,97541.81
2022-12-12T06:51:13.694Z,97547.97
2022-12-12T06:53:40.782Z,97564.78
2022-12-12T06:56:12.854Z,97559.47
2022-12-12T06:58:39.917Z,97564.69
2022-12-12T07:01:06.803Z,97561.19
2022-12-12T07:03:33.872Z,97565.66
2022-12-12T07:06:00.812Z,97556.16
2022-12-12T07:08:28.369Z,97565.00
2022-12-12T07:10:55.848Z,97566.59
2022-12-12T07:13:23.000Z,97573.56
2022-12-12T07:15:50.298Z,97569.16
2022-12-12T07:18:17.786Z,97570.09
2022-12-12T07:20:45.908Z,97569.47
2022-12-12T07:23:13.100Z,97566.78
2022-12-12T07:25:40.808Z,97568.31
2022-12-12T07:28:08.478Z,97565.66
2022-12-12T07:30:35.204Z,97567.69
2022-12-12T07:33:02.206Z,97573.75
2022-12-12T07:35:28.994Z,97579.16
2022-12-12T07:37:56.631Z,97572.03
2022-12-12T07:40:23.582Z,97575.53
2022-12-12T07:42:50.687Z,97581.91
2022-12-12T07:45:18.676Z,97578.09
2022-12-12T07:47:46.217Z,97579.34
2022-12-12T07:50:13.059Z,97574.88
2022-12-12T07:52:40.074Z,97575.84
2022-12-12T07:55:07.040Z,97573.94
2022-12-12T07:57:34.097Z,97578.31
2022-12-12T08:00:01.235Z,97572.56
2022-12-12T08:02:28.285Z,97575.44
2022-12-12T08:04:55.122Z,97579.91
2022-12-12T08:07:22.154Z,97578.41
2022-12-12T08:09:48.880Z,97581.81
2022-12-12T08:12:15.965Z,97588.97
2022-12-12T08:14:42.746Z,97586.16
2022-12-12T08:17:09.747Z,97586.84
2022-12-12T08:19:36.457Z,97585.97
2022-12-12T08:22:03.570Z,97594.84
2022-12-12T08:24:30.318Z,97586.16
2022-12-12T08:26:57.298Z,97590.47
2022-12-12T08:29:24.030Z,97593.69
2022-12-12T08:31:51.042Z,97587.41
2022-12-12T08:34:17.865Z,97582.09
2022-12-12T08:36:45.289Z,97591.75
2022-12-12T08:39:13.486Z,97591.00
2022-12-12T08:41:41.338Z,97591.94
2022-12-12T08:44:08.656Z,97588.44
2022-12-12T08:46:35.844Z,97593.69
2022-12-12T08:49:02.722Z,97596.34
2022-12-12T08:51:29.791Z,97603.16
2022-12-12T08:53:56.501Z,97593.38
2022-12-12T08:56:23.723Z,97596.91
2022-12-12T08:58:51.684Z,97608.69
2022-12-12T09:01:21.476Z,97611.13
2022-12-12T09:03:48.549Z,97601.28
2022-12-12T09:06:15.803Z,97605.72
2022-12-12T09:08:42.673Z,97597.84
2022-12-12T09:11:10.071Z,97599.56
2022-12-12T09:13:36.978Z,97606.59
2022-12-12T09:16:04.792Z,97607.25
2022-12-12T09:18:31.685Z,97609.25
2022-12-12T09:20:58.917Z,97608.19
2022-12-12T09:23:26.298Z,97608.28
2022-12-12T09:25:53.493Z,97602.13
2022-12-12T09:28:20.869Z,97607.34
2022-12-12T09:30:48.021Z,97603.94
2022-12-12T09:33:14.918Z,97608.09
2022-12-12T09:35:42.066Z,97601.72
2022-12-12T09:38:13.989Z,97603.44
2022-12-12T09:41:02.626Z,97605.59
2022-12-12T09:43:34.912Z,97605.88
2022-12-12T09:46:02.201Z,97599.53
2022-12-12T09:48:31.965Z,97600.47
2022-12-12T09:50:59.082Z,97608.38
2022-12-12T09:53:26.726Z,97611.13
2022-12-12T09:56:18.733Z,97605.88
2022-12-12T09:58:55.271Z,97608.47
2022-12-12T10:01:26.173Z,97609.31
2022-12-12T10:03:56.142Z,97619.66
2022-12-12T10:06:38.721Z,97615.19
2022-12-12T10:09:37.115Z,97612.84
2022-12-12T10:12:08.007Z,97618.72
2022-12-12T10:14:41.218Z,97612.22
2022-12-12T10:17:35.633Z,97617.00
2022-12-12T10:20:22.604Z,97609.00
2022-12-12T10:22:51.131Z,97603.50
2022-12-12T10:25:36.433Z,97608.72
2022-12-12T10:28:12.373Z,97611.47
2022-12-12T10:30:45.943Z,97595.41
2022-12-12T10:33:29.618Z,97600.72
2022-12-12T10:36:18.018Z,97598.63
2022-12-12T10:38:51.206Z,97596.34
2022-12-12T10:41:32.829Z,97599.88
2022-12-12T10:44:13.619Z,97601.78
2022-12-12T10:46:45.243Z,97605.13
2022-12-12T10:49:16.492Z,97602.22
2022-12-12T10:51:43.565Z,97602.31
2022-12-12T10:54:17.233Z,97604.88
2022-12-12T10:57:12.979Z,97606.41
2022-12-12T10:59:50.287Z,97603.66
2022-12-12T11:02:28.007Z,97607.25
2022-12-12T11:05:05.328Z,97603.75
2022-12-12T11:07:39.344Z,97602.69
2022-12-12T11:10:30.604Z,97602.78
2022-12-12T11:13:09.447Z,97600.03
2022-12-12T11:15:52.744Z,97596.41
2022-12-12T11:18:21.077Z,97601.94
2022-12-12T11:20:50.326Z,97596.59
2022-12-12T11:23:24.034Z,97598.53
2022-12-12T11:25:58.253Z,97592.03
2022-12-12T11:28:26.921Z,97591.09
2022-12-12T11:30:54.502Z,97594.69
2022-12-12T11:33:23.790Z,97600.56
2022-12-12T11:35:55.197Z,97595.47
2022-12-12T11:38:27.503Z,97594.50
2022-12-12T11:41:10.818Z,97601.63
2022-12-12T11:43:39.214Z,97600.13
2022-12-12T11:46:15.641Z,97597.78
2022-12-12T11:48:51.649Z,97604.78
2022-12-12T11:51:45.256Z,97599.19
2022-12-12T11:54:19.744Z,97606.88
2022-12-12T11:56:57.834Z,97602.69
2022-12-12T11:59:33.820Z,97606.22
2022-12-12T12:02:16.713Z,97612.69
2022-12-12T12:04:55.599Z,97612.69
2022-12-12T12:07:51.685Z,97618.75
2022-12-12T12:10:27.351Z,97615.25
2022-12-12T12:13:01.658Z,97623.63
2022-12-12T12:15:32.504Z,97622.78
2022-12-12T12:17:59.788Z,97626.41
2022-12-12T12:20:38.723Z,97622.59
2022-12-12T12:23:14.777Z,97627.06
2022-12-12T12:25:51.014Z,97623.13
2022-12-12T12:28:46.357Z,97626.88
2022-12-12T12:31:50.645Z,97633.25
2022-12-12T12:34:36.378Z,97626.00
2022-12-12T12:37:09.264Z,97631.13
2022-12-12T12:40:01.250Z,97626.00
2022-12-12T12:43:00.486Z,97628.38
2022-12-12T12:46:09.644Z,97621.13
2022-12-12T12:48:50.112Z,97619.53
2022-12-12T12:51:59.555Z,97627.53
2022-12-12T12:54:42.370Z,97629.22
2022-12-12T12:57:17.349Z,97633.50
2022-12-12T12:59:45.581Z,97635.41
2022-12-12T13:02:19.198Z,97631.13
2022-12-12T13:05:09.368Z,97641.28
2022-12-12T13:07:59.778Z,97633.50
2022-12-12T13:10:30.437Z,97638.81
2022-12-12T13:13:10.300Z,97632.84
2022-12-12T13:15:40.738Z,97639.13
2022-12-12T13:18:12.132Z,97642.44
2022-12-12T13:20:53.980Z,97635.41
2022-12-12T13:24:03.144Z,97641.38
2022-12-12T13:26:29.895Z,97638.72
2022-12-12T13:29:03.320Z,97637.00
2022-12-12T13:31:48.880Z,97648.59
2022-12-12T13:34:17.252Z,97646.53
2022-12-12T13:36:45.866Z,97643.28
2022-12-12T13:39:28.949Z,97654.59
2022-12-12T13:42:06.150Z,97651.16
2022-12-12T13:44:42.810Z,97654.91
2022-12-12T13:47:29.782Z,97659.75
2022-12-12T13:50:06.608Z,97664.81
2022-12-12T13:52:33.361Z,97665.94
2022-12-12T13:55:19.029Z,97665.84
2022-12-12T13:57:58.912Z,97667.84
2022-12-12T14:00:27.046Z,97673.63
2022-12-12T14:03:01.470Z,97670.22
2022-12-12T14:05:34.481Z,97674.91
2022-12-12T14:08:19.878Z,97683.34
2022-12-12T14:10:49.980Z,97678.97
2022-12-12T14:13:22.639Z,97685.22
2022-12-12T14:16:03.694Z,97688.88
2022-12-12T14:18:58.940Z,97687.97
2022-12-12T14:21:55.423Z,97689.69
2022-12-12T14:24:34.339Z,97692.47
2022-12-12T14:27:08.467Z,97693.13
2022-12-12T14:29:45.095Z,97691.34
2022-12-12T14:32:12.101Z,97687.22
2022-12-12T14:35:01.089Z,97695.22
2022-12-12T14:38:05.732Z,97692.47
2022-12-12T14:40:33.605Z,97696.19
2022-12-12T14:43:19.679Z,97686.38
2022-12-12T14:45:50.838Z,97701.44
2022-12-12T14:48:22.240Z,97706.84
2022-12-12T14:51:17.797Z,97697.41
2022-12-12T14:53:49.218Z,97699.69
2022-12-12T14:56:28.694Z,97707.78
2022-12-12T14:58:55.803Z,97701.53
2022-12-12T15:01:54.680Z,97707.69
2022-12-12T15:04:29.542Z,97710.91
2022-12-12T15:07:02.459Z,97711.19
2022-12-12T15:09:33.240Z,97713.28
2022-12-12T15:12:19.762Z,97716.63
2022-12-12T15:14:46.880Z,97727.47
2022-12-12T15:17:19.275Z,97720.44
2022-12-12T15:19:51.038Z,97720.34
2022-12-12T15:22:20.771Z,97722.13
2022-12-12T15:24:47.835Z,97718.53
2022-12-12T15:27:25.360Z,97724.78
2022-12-12T15:29:52.429Z,97733.47
2022-12-12T15:32:20.902Z,97728.16
2022-12-12T15:34:58.954Z,97733.94
2022-12-12T15:37:27.413Z,97737.34
2022-12-12T15:40:06.782Z,97736.31
2022-12-12T15:42:33.523Z,97745.34
2022-12-12T15:45:00.954Z,97747.81
2022-12-12T15:47:27.714Z,97749.53
2022-12-12T15:49:55.036Z,97759.13
2022-12-12T15:52:24.990Z,97751.22
2022-12-12T15:54:59.746Z,97756.88
2022-12-12T15:57:29.224Z,97749.63
2022-12-12T15:59:59.057Z,97755.91
2022-12-12T16:02:27.294Z,97760.28
2022-12-12T16:05:23.187Z,97762.94
2022-12-12T16:07:50.009Z,97772.06
2022-12-12T16:10:23.913Z,97772.94
2022-12-12T16:13:22.324Z,97773.78
2022-12-12T16:15:49.450Z,97776.16
2022-12-12T16:18:23.901Z,97771.88
2022-12-12T16:20:52.685Z,97777.84
2022-12-12T16:23:30.219Z,97780.50
2022-12-12T16:25:57.588Z,97792.13
2022-12-12T16:28:25.746Z,97784.06
2022-12-12T16:30:57.905Z,97783.19
2022-12-12T16:33:33.376Z,97778.91
2022-12-12T16:36:01.848Z,97798.59
2022-12-12T16:38:28.956Z,97795.00
2022-12-12T16:40:57.845Z,97803.91
2022-12-12T16:43:24.729Z,97791.16
2022-12-12T16:45:53.499Z,97799.25
2022-12-12T16:48:23.976Z,97810.78
2022-12-12T16:50:53.049Z,97803.81
2022-12-12T16:53:20.136Z,97813.06
2022-12-12T16:55:49.169Z,97820.06
2022-12-12T16:58:16.448Z,97814.97
2022-12-12T17:00:44.289Z,97818.47
2022-12-12T17:03:14.640Z,97820.16
2022-12-12T17:05:42.140Z,97823.31
2022-12-12T17:08:08.988Z,97830.44
2022-12-12T17:10:36.623Z,97830.06
2022-12-12T17:13:04.957Z,97837.22
2022-12-12T17:15:32.431Z,97839.19
2022-12-12T17:17:59.600Z,97848.22
2022-12-12T17:20:26.780Z,97846.63
2022-12-12T17:25:50.331Z,97837.00
2022-12-12T17:28:18.947Z,97845.47
2022-12-12T17:30:47.120Z,97847.38
2022-12-12T17:33:19.780Z,97852.69
2022-12-12T17:35:46.843Z,97850.22
2022-12-12T17:38:16.305Z,97849.56
2022-12-12T17:40:43.786Z,97863.63
2022-12-12T17:43:10.544Z,97862.03
2022-12-12T17:45:37.811Z,97861.06
2022-12-12T17:48:05.142Z,97866.50
2022-12-12T17:50:34.968Z,97867.25
2022-12-12T17:53:06.710Z,97868.78
2022-12-12T17:55:53.745Z,97860.69
2022-12-12T17:58:22.859Z,97869.16
2022-12-12T18:00:53.548Z,97874.28
2022-12-12T18:03:20.310Z,97872.28
2022-12-12T18:05:47.362Z,97876.94
2022-12-12T18:08:14.176Z,97883.16
2022-12-12T18:10:41.239Z,97883.34
2022-12-12T18:13:08.094Z,97881.78
2022-12-12T18:15:35.201Z,97882.94
2022-12-12T18:18:01.961Z,97888.09
2022-12-12T18:20:31.536Z,97889.00
2022-12-12T18:22:58.450Z,97888.94
2022-12-12T18:25:25.593Z,97885.50
2022-12-12T18:27:52.630Z,97895.88
2022-12-12T18:30:19.749Z,97899.22
2022-12-12T18:32:46.532Z,97898.06
2022-12-12T18:35:13.617Z,97911.38
2022-12-12T18:37:40.350Z,97912.81
2022-12-12T18:40:07.750Z,97915.56
2022-12-12T18:42:34.503Z,97914.72
2022-12-12T18:45:01.529Z,97917.09
2022-12-12T18:47:28.296Z,97922.69
2022-12-12T18:49:55.352Z,97926.88
2022-12-12T18:52:22.288Z,97928.78
2022-12-12T18:54:49.816Z,97936.75
2022-12-12T18:57:18.262Z,97942.09
2022-12-12T18:59:45.297Z,97938.84
2022-12-12T19:02:13.109Z,97950.53
2022-12-12T19:04:40.207Z,97946.44
2022-12-12T19:07:06.947Z,97951.94
2022-12-12T19:09:34.072Z,97956.50
2022-12-12T19:12:02.611Z,97953.75
2022-12-12T19:14:40.643Z,97968.75
2022-12-12T19:17:13.015Z,97964.22
2022-12-12T19:19:40.035Z,97963.34
2022-12-12T19:22:24.708Z,97972.03
2022-12-12T19:24:52.243Z,97976.38
2022-12-12T19:27:19.066Z,97972.88
2022-12-12T19:29:46.135Z,97984.03
2022-12-12T19:32:13.074Z,97975.13
2022-12-12T19:34:40.147Z,97990.84
2022-12-12T19:37:06.935Z,97987.03
2022-12-12T19:39:34.128Z,98000.09
2022-12-12T19:42:01.003Z,97997.41
2022-12-12T19:44:28.067Z,98000.16
2022-12-12T19:46:54.827Z,98001.59
2022-12-12T19:49:21.938Z,98011.31
2022-12-12T19:51:48.895Z,98004.97
2022-12-12T19:54:17.899Z,98008.47
2022-12-12T19:56:44.899Z,98011.56
2022-12-12T19:59:13.115Z,98011.41
2022-12-12T20:01:40.041Z,98013.88
2022-12-12T20:04:29.724Z,98011.91
2022-12-12T20:06:56.606Z,98019.13
2022-12-12T20:09:26.175Z,98023.50
2022-12-12T20:11:53.574Z,98019.13
2022-12-12T20:14:25.292Z,98028.81
2022-12-12T20:16:52.665Z,98020.06
2022-12-12T20:19:19.833Z,98023.88
2022-12-12T20:22:03.276Z,98027.22
2022-12-12T20:24:32.239Z,98021.97
2022-12-12T20:26:59.773Z,98023.88
2022-12-12T20:29:27.213Z,98031.19
2022-12-12T20:31:53.986Z,98034.19
2022-12-12T20:34:24.930Z,98042.34
2022-12-12T20:36:52.411Z,98045.19
2022-12-12T20:39:21.309Z,98047.00
2022-12-12T20:41:48.312Z,98043.41
2022-12-12T20:44:15.469Z,98051.19
2022-12-12T20:46:43.856Z,98046.66
2022-12-12T20:49:14.187Z,98050.00
2022-12-12T20:51:57.905Z,98056.16
2022-12-12T20:54:26.704Z,98063.38
2022-12-12T20:56:54.153Z,98066.56
2022-12-12T20:59:21.230Z,98067.41
2022-12-12T21:01:48.132Z,98076.06
2022-12-12T21:04:15.504Z,98088.72
2022-12-12T21:06:48.151Z,98085.88
2022-12-12T21:09:22.626Z,98088.53
2022-12-12T21:11:51.301Z,98101.09
2022-12-12T21:14:18.393Z,98099.19
2022-12-12T21:16:45.226Z,98098.03
2022-12-12T21:19:12.856Z,98101.69
2022-12-12T21:21:40.165Z,98091.28
2022-12-12T21:24:07.398Z,98096.69
2022-12-12T21:26:34.303Z,98096.69
2022-12-12T21:29:04.913Z,98088.03
2022-12-12T21:31:33.806Z,98092.34
2022-12-12T21:34:01.053Z,98094.19
2022-12-12T21:36:28.225Z,98102.72
2022-12-12T21:38:55.976Z,98099.09
2022-12-12T21:41:22.948Z,98104.44
2022-12-12T21:43:50.220Z,98107.88
2022-12-12T21:46:21.554Z,98116.88
2022-12-12T21:49:08.756Z,98111.22
2022-12-12T21:51:35.636Z,98113.19
2022-12-12T21:54:03.736Z,98110.97
2022-12-12T21:56:30.609Z,98118.75
2022-12-12T21:58:57.820Z,98113.38
2022-12-12T22:01:24.664Z,98126.59
2022-12-12T22:03:51.718Z,98127.56
2022-12-12T22:06:20.328Z,98127.44
2022-12-12T22:08:47.588Z,98130.81
2022-12-12T22:11:15.462Z,98132.50
2022-12-12T22:14:02.570Z,98134.41
2022-12-12T22:16:33.453Z,98136.13
2022-12-12T22:19:07.952Z,98135.16
2022-12-12T22:21:34.943Z,98134.91
2022-12-12T22:24:02.252Z,98134.31
2022-12-12T22:26:36.899Z,98145.72
2022-12-12T22:29:05.750Z,98143.16
2022-12-12T22:31:34.274Z,98139.56
2022-12-12T22:34:06.580Z,98144.28
2022-12-12T22:36:35.290Z,98143.59
2022-12-12T22:39:02.644Z,98141.94
2022-12-12T22:41:29.535Z,98151.50
2022-12-12T22:43:59.558Z,98155.84
2022-12-12T22:46:26.552Z,98157.69
2022-12-12T22:48:54.830Z,98157.75
2022-12-12T22:51:23.471Z,98167.47
2022-12-12T22:53:50.620Z,98159.38
2022-12-12T22:56:17.539Z,98166.44
2022-12-12T22:58:44.527Z,98171.16
2022-12-12T23:01:14.383Z,98168.41
2022-12-12T23:03:41.804Z,98180.78
2022-12-12T23:06:16.599Z,98173.56
2022-12-12T23:08:44.009Z,98178.19
2022-12-12T23:11:13.180Z,98179.03
2022-12-12T23:13:44.397Z,98177.31
2022-12-12T23:16:18.816Z,98182.47
2022-12-12T23:18:46.199Z,98178.88
2022-12-12T23:21:17.019Z,98180.50
2022-12-12T23:23:45.027Z,98171.66
2022-12-12T23:26:16.791Z,98176.75
2022-12-12T23:28:44.281Z,98174.31
2022-12-12T23:31:22.142Z,98171.41
2022-12-12T23:33:52.130Z,98184.72
2022-12-12T23:36:18.827Z,98179.25
2022-12-12T23:38:45.871Z,98173.63
2022-12-12T23:41:13.816Z,98172.78
2022-12-12T23:43:41.295Z,98173.72
2022-12-12T23:46:28.069Z,98170.97
2022-12-12T23:49:02.862Z,98180.63
2022-12-12T23:51:31.565Z,98175.28
2022-12-12T23:53:59.264Z,98178.72
2022-12-12T23:56:26.577Z,98180.63
2022-12-12T23:58:54.682Z,98168.91
